Tallahassee Regional Airport
KTLH : now visible

Airfield :











YOU CAN JOIN US ON...

 
LOGIN :

Register | Disclaimer

   EN    FR    IT 

 









Legend :    VFR   Marginal VFR   IFR   Intensive IFR   Very Intensive IFR
Visi :
Ceiling :
>= 8 km
>= 3000ft
5 to 8 km
1000 to 3000 ft
1500m to 5 km
500 to 1000 ft
800 to 1500m
200 to 500 ft
< 800m
< 200 ft
Symbols :   Thunderstorms  Fog  Heavy snow  Heavy precipitations  Wind > 20 kt






- Airport Elevation : 81 ft
- IATA code : TLH


KTLH - Tallahassee Regional

CURRENT METAR :
  • 291453Z 10004KT 10SM FEW050 OVC110 11/04 A3001 RMK AO2 SLP160 T01110039 51004

EXPIRED METARs :
  • 291353Z 00000KT 10SM SCT050 BKN120 OVC150 08/04 A3000 RMK AO2 SLP158 T00780044
  • 291253Z COR 00000KT 10SM SCT050 BKN110 OVC150 04/02 A3000 RMK AO2 SLP160 T00440022
  • 291153Z 00000KT 10SM SCT110 04/02 A2999 RMK AO2 SLP156 T00440022 10050 20017 53002

TAF KTLH
Valid from the 29 at 12:00 until the 30 at 12:00 UTC


291128Z 2912/3012 00000KT P6SM SCT150
FM291500 VRB03KT P6SM VCSH BKN100
FM291900 10005KT 6SM BR OVC050
FM292200 08005KT 6SM RA OVC019
FM300000 05005KT P6SM OVC016
PROB30 3000/3006 4SM SHRA OVC008



MET'MAP, your aeronautical weather chart ! - Copyright ORBIFLY December 2007 - Disclaimer

ORBIFLY MET'MAP TEAM :

Programming & Development : Alexandra Zaïnal
Concept & original design : Baudouin d'Aumeries
Assistance for programming : Marc-Olivier Méhu
Technical & hardware support : Manuel Goepfert

Contact : metmap@orbifly.com




SOURCES & CREDITS :

   NOAA       Earth
Advisory